Time;durP1;ratioP1;P1;durP2;ratioP2;P2;SDS_P1;SDS_P2;PMS_P1;PMS_P2;Temp;Humidity;BMP_temperature;BMP_pressure;BME280_temperature;BME280_humidity;BME280_pressure;Samples;Min_cycle;Max_cycle;Signal;HPM_P1;HPM_P2
2021/06/14 00:00:11;;;;;;;5.20;3.03;;;16.30;35.30;;;;;;5036205;28;20450;-82
2021/06/14 00:02:38;;;;;;;6.47;2.80;;;16.20;35.30;;;;;;5035984;28;20452;-83
2021/06/14 00:05:07;;;;;;;4.68;3.03;;;16.20;35.20;;;;;;5035620;28;20633;-84
2021/06/14 00:07:34;;;;;;;5.97;2.70;;;16.20;35.30;;;;;;5035694;28;20211;-85
2021/06/14 00:10:01;;;;;;;5.43;2.80;;;16.10;35.70;;;;;;5035907;28;20214;-83
2021/06/14 00:12:28;;;;;;;3.40;3.00;;;16.10;36.40;;;;;;5035857;28;20485;-84
2021/06/14 00:14:55;;;;;;;6.18;3.08;;;16.00;36.80;;;;;;5036397;28;20550;-83
2021/06/14 00:17:23;;;;;;;4.00;2.90;;;15.90;37.30;;;;;;5036274;28;20302;-84
2021/06/14 00:19:50;;;;;;;3.00;2.80;;;15.90;37.70;;;;;;5036882;28;21017;-82
2021/06/14 00:22:18;;;;;;;4.33;3.17;;;15.90;37.90;;;;;;5036599;28;20527;-84
2021/06/14 00:24:45;;;;;;;4.60;3.23;;;15.80;38.00;;;;;;5036284;28;20465;-83
2021/06/14 00:27:13;;;;;;;3.10;2.90;;;15.80;38.40;;;;;;5037292;28;20515;-84
2021/06/14 00:29:40;;;;;;;4.43;3.07;;;15.70;38.50;;;;;;5041405;28;20454;-82
2021/06/14 00:32:09;;;;;;;3.47;2.87;;;15.70;39.00;;;;;;5052269;28;20464;-82
2021/06/14 00:34:37;;;;;;;5.32;2.70;;;15.60;39.10;;;;;;5054220;28;20428;-82
2021/06/14 00:37:05;;;;;;;3.93;2.80;;;15.60;39.40;;;;;;5050865;28;20207;-82
2021/06/14 00:39:32;;;;;;;5.03;3.60;;;15.50;39.60;;;;;;5045952;28;20968;-82
2021/06/14 00:41:59;;;;;;;4.78;3.17;;;15.40;40.40;;;;;;5051351;28;20449;-83
2021/06/14 00:44:26;;;;;;;6.07;2.75;;;15.30;40.40;;;;;;5056994;28;20199;-82
2021/06/14 00:46:53;;;;;;;6.90;3.80;;;15.30;40.70;;;;;;5057221;28;20218;-81
2021/06/14 00:49:20;;;;;;;4.82;3.47;;;15.30;41.10;;;;;;5057495;28;20270;-80
2021/06/14 00:51:49;;;;;;;3.70;3.40;;;15.30;41.10;;;;;;5057225;28;20227;-80
2021/06/14 00:54:16;;;;;;;3.30;3.00;;;15.30;41.30;;;;;;5057140;28;20202;-81
2021/06/14 00:56:43;;;;;;;5.35;3.05;;;15.30;41.50;;;;;;5056751;28;20203;-80
2021/06/14 00:59:11;;;;;;;6.70;3.20;;;15.20;41.80;;;;;;5056977;28;20199;-80
2021/06/14 01:01:38;;;;;;;4.32;3.13;;;15.20;41.70;;;;;;5056887;28;20203;-81
2021/06/14 01:04:05;;;;;;;3.50;2.80;;;15.20;41.90;;;;;;5056693;28;20199;-81
2021/06/14 01:06:32;;;;;;;5.80;3.00;;;15.10;42.00;;;;;;5057059;28;20230;-79
2021/06/14 01:09:01;;;;;;;3.83;3.00;;;15.10;42.30;;;;;;5057003;28;20214;-81
2021/06/14 01:11:34;;;;;;;3.15;2.85;;;15.00;42.90;;;;;;5056868;28;20215;-81
2021/06/14 01:14:07;;;;;;;5.00;3.42;;;15.00;44.20;;;;;;5055544;28;20203;-83
2021/06/14 01:16:40;;;;;;;4.60;2.80;;;14.90;44.10;;;;;;5049207;28;20195;-82
2021/06/14 01:19:21;;;;;;;3.67;3.25;;;14.80;44.00;;;;;;5061234;28;20183;-81
2021/06/14 01:22:02;;;;;;;4.38;2.92;;;14.80;44.00;;;;;;5054332;28;20215;-83
2021/06/14 01:24:45;;;;;;;7.18;3.50;;;14.80;44.00;;;;;;5043929;28;20339;-83
2021/06/14 01:27:40;;;;;;;4.90;3.40;;;14.90;44.10;;;;;;5048611;28;20265;-83
2021/06/14 01:30:10;;;;;;;3.60;3.30;;;14.80;44.00;;;;;;5046389;28;20207;-82
2021/06/14 01:32:39;;;;;;;3.28;2.63;;;14.70;43.90;;;;;;5084321;23;20237;-87
2021/06/14 01:35:07;;;;;;;3.03;2.70;;;14.70;43.90;;;;;;5074448;28;20234;-86
2021/06/14 01:37:40;;;;;;;4.97;3.72;;;14.70;43.90;;;;;;5074889;28;20205;-86
2021/06/14 01:40:09;;;;;;;3.85;3.30;;;14.70;43.90;;;;;;5075923;28;20312;-87
2021/06/14 01:42:37;;;;;;;6.18;3.00;;;14.70;43.90;;;;;;5085596;28;20233;-86
2021/06/14 01:45:07;;;;;;;4.00;3.15;;;14.60;43.80;;;;;;5077835;28;20229;-86
2021/06/14 01:47:34;;;;;;;6.85;3.10;;;14.60;44.70;;;;;;5076972;28;20233;-86
2021/06/14 01:50:02;;;;;;;5.13;3.33;;;14.50;44.70;;;;;;5079689;28;20637;-87
2021/06/14 01:52:29;;;;;;;7.70;3.33;;;14.60;45.20;;;;;;5077221;28;20260;-86
2021/06/14 01:54:57;;;;;;;4.47;3.30;;;14.50;45.40;;;;;;5085536;28;20248;-86
2021/06/14 01:57:25;;;;;;;4.95;3.88;;;14.40;45.40;;;;;;5095592;28;20197;-86
2021/06/14 01:59:53;;;;;;;5.70;3.53;;;14.40;45.90;;;;;;5099976;28;20205;-87
2021/06/14 02:02:22;;;;;;;4.93;3.28;;;14.40;46.10;;;;;;5099211;28;20220;-88
2021/06/14 02:04:51;;;;;;;3.53;3.05;;;14.40;46.30;;;;;;5099048;28;20229;-88
2021/06/14 02:07:20;;;;;;;5.85;3.58;;;14.30;46.80;;;;;;5087391;28;20233;-86
2021/06/14 02:09:47;;;;;;;4.03;3.40;;;14.20;47.10;;;;;;5082732;28;20201;-87
2021/06/14 02:12:14;;;;;;;4.00;3.60;;;14.20;47.70;;;;;;5083395;28;20376;-87
2021/06/14 02:14:43;;;;;;;4.03;3.40;;;14.10;48.20;;;;;;5083845;28;20244;-86
2021/06/14 02:17:12;;;;;;;7.18;3.90;;;14.10;48.80;;;;;;5084093;28;20236;-86
2021/06/14 02:19:42;;;;;;;3.72;3.35;;;14.00;49.30;;;;;;5083543;28;20209;-87
2021/06/14 02:22:10;;;;;;;4.93;3.53;;;14.00;49.90;;;;;;5084731;28;20182;-86
2021/06/14 02:24:37;;;;;;;4.55;3.40;;;13.90;50.60;;;;;;5085256;28;20209;-86
2021/06/14 02:27:05;;;;;;;5.72;3.50;;;13.80;51.30;;;;;;5087760;28;20627;-86
2021/06/14 02:29:32;;;;;;;3.47;3.17;;;13.80;52.20;;;;;;5091041;28;20206;-86
2021/06/14 02:31:59;;;;;;;3.92;3.53;;;13.70;52.70;;;;;;5099693;28;20217;-86
2021/06/14 02:34:27;;;;;;;5.57;3.30;;;13.60;52.60;;;;;;5100570;28;20181;-85
2021/06/14 02:36:56;;;;;;;4.93;3.95;;;13.60;52.60;;;;;;5100329;28;20206;-85
2021/06/14 02:39:27;;;;;;;4.82;3.85;;;13.60;53.00;;;;;;5100290;28;20209;-86
2021/06/14 02:41:54;;;;;;;4.47;3.38;;;13.60;53.40;;;;;;5097243;28;20216;-85
2021/06/14 02:44:25;;;;;;;5.50;2.95;;;13.50;53.50;;;;;;5100453;28;20216;-84
2021/06/14 02:46:55;;;;;;;6.65;3.88;;;13.50;53.70;;;;;;5100366;28;20190;-86
2021/06/14 02:49:23;;;;;;;6.75;3.88;;;13.40;54.20;;;;;;5099591;28;20213;-86
2021/06/14 02:51:53;;;;;;;7.75;3.90;;;13.40;54.50;;;;;;5089060;28;20251;-88
2021/06/14 02:54:24;;;;;;;5.20;3.95;;;13.30;55.10;;;;;;5089185;28;20216;-86
2021/06/14 02:56:56;;;;;;;4.75;3.80;;;13.30;56.00;;;;;;5081289;28;20237;-85
2021/06/14 02:59:25;;;;;;;6.10;4.20;;;13.30;56.00;;;;;;5080370;28;20248;-87
2021/06/14 03:01:54;;;;;;;5.38;4.10;;;13.20;56.30;;;;;;5081111;28;20249;-86
2021/06/14 03:04:23;;;;;;;5.53;3.97;;;13.20;57.00;;;;;;5079717;28;20694;-85
2021/06/14 03:06:51;;;;;;;5.03;4.00;;;13.20;57.00;;;;;;5078957;28;20715;-85
2021/06/14 03:09:19;;;;;;;5.50;3.80;;;13.10;56.90;;;;;;5079200;28;20214;-88
2021/06/14 03:11:48;;;;;;;5.40;3.85;;;13.20;57.60;;;;;;5079808;28;20221;-86
2021/06/14 03:14:16;;;;;;;5.45;3.80;;;13.10;57.80;;;;;;5078817;28;20340;-87
2021/06/14 03:16:44;;;;;;;4.90;4.13;;;13.10;58.30;;;;;;5090728;28;20182;-86
2021/06/14 03:19:13;;;;;;;4.47;3.95;;;13.10;58.30;;;;;;5096282;28;20186;-86
2021/06/14 03:21:41;;;;;;;3.67;3.38;;;13.10;58.60;;;;;;5099801;28;20201;-86
2021/06/14 03:24:09;;;;;;;3.80;3.42;;;13.00;58.80;;;;;;5099353;28;20236;-86
2021/06/14 03:26:39;;;;;;;4.85;3.75;;;13.10;58.80;;;;;;5099470;28;20205;-86
2021/06/14 03:29:09;;;;;;;6.97;4.45;;;13.10;58.80;;;;;;5099550;28;20202;-86
2021/06/14 03:31:37;;;;;;;10.57;4.68;;;13.00;59.00;;;;;;5089574;28;20643;-86
2021/06/14 03:34:05;;;;;;;8.00;4.47;;;13.00;58.90;;;;;;5093791;28;20229;-85
2021/06/14 03:36:33;;;;;;;7.03;4.38;;;13.10;58.40;;;;;;5089168;28;20206;-86
2021/06/14 03:39:01;;;;;;;5.15;3.20;;;13.00;58.20;;;;;;5093145;28;20209;-85
2021/06/14 03:41:28;;;;;;;5.45;3.70;;;13.00;58.20;;;;;;5085435;28;20264;-85
2021/06/14 03:43:55;;;;;;;5.13;4.07;;;13.10;57.90;;;;;;5082030;28;20253;-85
2021/06/14 03:46:23;;;;;;;4.75;3.80;;;13.10;58.10;;;;;;5081347;28;20210;-86
2021/06/14 03:48:50;;;;;;;5.38;4.10;;;13.10;58.30;;;;;;5082418;28;20194;-86
2021/06/14 03:51:17;;;;;;;5.05;3.67;;;13.20;57.50;;;;;;5084798;28;20282;-85
2021/06/14 03:53:56;;;;;;;6.70;3.60;;;13.20;56.90;;;;;;5084737;28;20221;-86
2021/06/14 03:56:24;;;;;;;8.43;4.20;;;13.30;56.50;;;;;;5093776;28;20177;-86
2021/06/14 03:58:51;;;;;;;7.20;3.55;;;13.30;56.30;;;;;;5098617;28;20769;-84
2021/06/14 04:01:18;;;;;;;3.85;3.25;;;13.40;55.30;;;;;;5095590;28;20232;-86
2021/06/14 04:03:54;;;;;;;5.85;3.83;;;13.50;54.70;;;;;;5087594;28;20232;-86
2021/06/14 04:06:21;;;;;;;4.43;3.60;;;13.50;54.60;;;;;;5088514;28;20205;-85
2021/06/14 04:08:48;;;;;;;5.22;3.83;;;13.60;54.20;;;;;;5086761;28;20221;-85
2021/06/14 04:11:15;;;;;;;6.30;3.83;;;13.60;53.80;;;;;;5086907;28;20201;-87
2021/06/14 04:13:42;;;;;;;4.43;3.95;;;13.70;52.70;;;;;;5088671;28;20718;-87
2021/06/14 04:16:09;;;;;;;5.15;3.70;;;13.80;52.80;;;;;;5089199;28;20788;-85
2021/06/14 04:18:36;;;;;;;7.72;4.28;;;13.80;52.80;;;;;;5087560;28;20228;-84
2021/06/14 04:21:05;;;;;;;3.90;3.50;;;13.80;52.80;;;;;;5095804;28;20216;-87
2021/06/14 04:23:32;;;;;;;4.80;3.80;;;13.80;52.80;;;;;;5088425;28;20220;-85
2021/06/14 04:25:59;;;;;;;5.82;3.78;;;13.90;52.90;;;;;;5083909;28;20236;-87
2021/06/14 04:28:26;;;;;;;3.70;3.20;;;14.10;53.10;;;;;;5084534;28;20243;-85
2021/06/14 04:30:53;;;;;;;6.20;3.65;;;14.20;53.20;;;;;;5085242;28;20201;-87
2021/06/14 04:33:20;;;;;;;4.10;3.70;;;14.20;52.40;;;;;;5094475;28;20229;-86
2021/06/14 04:35:47;;;;;;;3.35;3.05;;;14.30;52.40;;;;;;5089299;28;20675;-84
2021/06/14 04:38:15;;;;;;;5.72;3.85;;;14.40;51.90;;;;;;5079188;28;20193;-83
2021/06/14 04:40:42;;;;;;;4.07;3.13;;;14.60;51.60;;;;;;5078095;28;20296;-83
2021/06/14 04:43:09;;;;;;;7.80;4.10;;;14.70;50.80;;;;;;5080478;28;20256;-85
2021/06/14 04:45:36;;;;;;;5.40;3.60;;;14.80;50.50;;;;;;5086114;28;20259;-83
2021/06/14 04:48:03;;;;;;;6.45;3.42;;;15.10;49.90;;;;;;5081343;28;20237;-83
2021/06/14 04:50:30;;;;;;;6.37;3.40;;;15.80;47.40;;;;;;5077908;28;20229;-83
2021/06/14 04:52:57;;;;;;;9.10;3.70;;;16.90;44.70;;;;;;5077676;28;21005;-81
2021/06/14 04:55:25;;;;;;;5.10;3.50;;;17.90;41.40;;;;;;5078099;28;20411;-81
2021/06/14 04:57:52;;;;;;;3.33;3.03;;;18.80;37.70;;;;;;5077164;28;20514;-81
2021/06/14 05:00:20;;;;;;;7.17;3.00;;;19.20;38.10;;;;;;5073270;28;20460;-76
2021/06/14 05:02:47;;;;;;;5.27;3.20;;;19.10;37.90;;;;;;5072692;28;20532;-79
2021/06/14 05:05:14;;;;;;;3.53;3.10;;;19.70;35.50;;;;;;5073445;28;20425;-80
2021/06/14 05:07:41;;;;;;;4.30;3.30;;;20.10;34.10;;;;;;5079244;28;20471;-76
2021/06/14 05:10:09;;;;;;;6.13;3.00;;;20.10;34.30;;;;;;5060619;28;20519;-79
2021/06/14 05:12:38;;;;;;;4.97;3.07;;;20.10;34.10;;;;;;5071125;28;20499;-76
2021/06/14 05:15:06;;;;;;;5.23;3.10;;;20.50;33.00;;;;;;5058230;28;20471;-79
2021/06/14 05:17:33;;;;;;;5.20;2.93;;;19.60;35.00;;;;;;5063833;28;20455;-78
2021/06/14 05:20:00;;;;;;;3.20;2.57;;;20.00;33.80;;;;;;5069152;28;20530;-76
2021/06/14 05:22:27;;;;;;;3.10;2.77;;;21.20;31.50;;;;;;5062517;28;20503;-77
2021/06/14 05:24:54;;;;;;;3.60;3.10;;;20.50;31.30;;;;;;5074640;28;20434;-77
2021/06/14 05:27:21;;;;;;;4.10;3.03;;;20.10;33.50;;;;;;5076866;28;20487;-78
2021/06/14 05:29:49;;;;;;;5.50;3.03;;;21.20;31.70;;;;;;5079980;28;20453;-79
2021/06/14 05:32:16;;;;;;;4.03;2.67;;;22.20;30.20;;;;;;5078143;28;20494;-78
2021/06/14 05:34:44;;;;;;;7.70;3.37;;;22.20;29.40;;;;;;5078929;28;20457;-78
2021/06/14 05:37:11;;;;;;;3.63;2.80;;;20.80;31.20;;;;;;5079686;28;20484;-77
2021/06/14 05:39:38;;;;;;;4.20;3.20;;;20.80;30.90;;;;;;5080148;28;20483;-77
2021/06/14 05:42:06;;;;;;;4.20;2.80;;;21.20;29.80;;;;;;5091093;28;20463;-82
2021/06/14 05:44:33;;;;;;;3.60;2.87;;;20.40;31.40;;;;;;5099438;28;20483;-81
2021/06/14 05:47:01;;;;;;;4.90;3.40;;;20.10;32.00;;;;;;5089263;28;20454;-80
2021/06/14 05:49:28;;;;;;;6.83;3.10;;;19.60;33.80;;;;;;5084347;28;20525;-78
2021/06/14 05:51:55;;;;;;;4.63;3.40;;;20.00;33.10;;;;;;5077647;28;20514;-80
2021/06/14 05:54:22;;;;;;;3.33;2.70;;;20.10;33.00;;;;;;5078884;28;20435;-76
2021/06/14 05:56:49;;;;;;;4.60;2.83;;;20.40;32.70;;;;;;5076915;28;20475;-76
2021/06/14 05:59:16;;;;;;;4.57;3.10;;;21.10;30.70;;;;;;5077300;28;20478;-77
2021/06/14 06:01:43;;;;;;;3.47;3.00;;;21.70;30.00;;;;;;5087056;28;20464;-81
2021/06/14 06:04:11;;;;;;;3.60;2.83;;;20.70;32.10;;;;;;5085741;28;20453;-79
2021/06/14 06:06:38;;;;;;;4.20;2.77;;;20.40;32.80;;;;;;5089149;28;20484;-80
2021/06/14 06:09:05;;;;;;;3.13;2.83;;;20.80;31.80;;;;;;5086578;28;20479;-81
2021/06/14 06:11:32;;;;;;;3.43;2.73;;;22.10;30.40;;;;;;5089656;28;20427;-80
2021/06/14 06:13:59;;;;;;;4.93;3.23;;;21.90;30.20;;;;;;5090325;28;20467;-80
2021/06/14 06:16:26;;;;;;;3.13;2.40;;;21.80;30.10;;;;;;5072626;28;20947;-79
2021/06/14 06:18:53;;;;;;;9.30;3.20;;;21.40;29.90;;;;;;5060420;28;20462;-80
2021/06/14 06:21:22;;;;;;;3.27;2.97;;;20.70;31.70;;;;;;5077494;28;20456;-80
2021/06/14 06:23:49;;;;;;;4.77;2.97;;;20.70;32.10;;;;;;5094064;28;20464;-81
2021/06/14 06:26:16;;;;;;;4.07;3.00;;;21.30;31.00;;;;;;5096247;28;20436;-84
2021/06/14 06:28:42;;;;;;;5.83;2.90;;;21.70;30.00;;;;;;5093154;28;20452;-83
2021/06/14 06:31:13;;;;;;;6.23;2.87;;;22.30;29.70;;;;;;5089662;28;20461;-82
2021/06/14 06:33:41;;;;;;;4.03;3.00;;;22.00;30.20;;;;;;5081519;28;20488;-82
2021/06/14 06:36:08;;;;;;;5.83;2.80;;;21.40;29.90;;;;;;5077994;28;20473;-82
2021/06/14 06:38:37;;;;;;;5.60;2.60;;;22.00;30.30;;;;;;5064781;28;20433;-82
2021/06/14 06:41:05;;;;;;;2.90;2.70;;;22.20;29.10;;;;;;5066293;28;20528;-81
2021/06/14 06:43:34;;;;;;;3.20;2.90;;;21.70;30.00;;;;;;5068932;28;20531;-82
2021/06/14 06:46:01;;;;;;;4.60;2.90;;;21.50;30.00;;;;;;5069288;28;20454;-83
2021/06/14 06:48:29;;;;;;;5.20;2.97;;;21.30;29.80;;;;;;5065578;28;20938;-80
2021/06/14 06:50:56;;;;;;;4.70;3.20;;;21.50;30.00;;;;;;5068039;28;20424;-81
2021/06/14 06:53:24;;;;;;;4.87;2.40;;;21.60;30.00;;;;;;5068988;28;20717;-82
2021/06/14 06:55:52;;;;;;;4.50;2.80;;;21.70;29.70;;;;;;5066727;28;20589;-81
2021/06/14 06:58:20;;;;;;;7.27;3.37;;;22.00;29.10;;;;;;5072071;28;20406;-83
2021/06/14 07:00:48;;;;;;;3.30;2.73;;;21.70;30.00;;;;;;5069716;28;20535;-86
2021/06/14 07:03:17;;;;;;;3.80;3.10;;;21.80;29.80;;;;;;5069843;28;20461;-85
2021/06/14 07:05:46;;;;;;;7.20;3.47;;;21.80;30.00;;;;;;5069167;28;20522;-82
2021/06/14 07:08:13;;;;;;;4.60;3.37;;;20.90;30.90;;;;;;5071361;28;20453;-84
2021/06/14 07:10:40;;;;;;;7.00;3.00;;;20.70;30.20;;;;;;5070270;28;20426;-80
2021/06/14 07:13:08;;;;;;;3.43;2.80;;;20.40;31.90;;;;;;5092833;28;20471;-82
2021/06/14 07:15:36;;;;;;;6.40;3.40;;;20.50;31.20;;;;;;5091479;28;20454;-83
2021/06/14 07:18:03;;;;;;;5.83;3.07;;;20.40;32.10;;;;;;5089244;28;20434;-82
2021/06/14 07:20:31;;;;;;;5.10;3.20;;;20.90;31.40;;;;;;5089219;28;20951;-81
2021/06/14 07:22:58;;;;;;;3.53;3.20;;;21.00;30.50;;;;;;5090122;28;20535;-82
2021/06/14 07:25:26;;;;;;;2.87;2.60;;;20.70;31.10;;;;;;5091497;28;20599;-83
2021/06/14 07:27:53;;;;;;;6.77;2.93;;;20.50;32.10;;;;;;5089424;28;20497;-82
2021/06/14 07:30:23;;;;;;;4.13;2.77;;;20.60;31.80;;;;;;5074820;28;20467;-82
2021/06/14 07:32:50;;;;;;;4.80;3.13;;;20.60;31.80;;;;;;5084740;28;20521;-79
2021/06/14 07:35:17;;;;;;;4.60;3.60;;;20.80;31.40;;;;;;5094472;28;20429;-80
2021/06/14 07:37:44;;;;;;;9.00;3.00;;;20.80;30.60;;;;;;5085777;28;20435;-79
2021/06/14 07:40:12;;;;;;;3.37;3.07;;;20.70;31.50;;;;;;5085475;28;20433;-81
2021/06/14 07:42:39;;;;;;;4.47;3.07;;;20.80;31.40;;;;;;5084429;28;20483;-79
2021/06/14 07:45:07;;;;;;;9.03;5.13;;;20.90;31.40;;;;;;5082852;28;20854;-80
2021/06/14 07:47:36;;;;;;;6.97;3.77;;;21.00;32.30;;;;;;5080486;28;20447;-79
2021/06/14 07:50:04;;;;;;;6.67;3.20;;;21.10;30.90;;;;;;5078306;28;20451;-78
2021/06/14 07:52:31;;;;;;;3.20;2.90;;;20.90;30.90;;;;;;5092600;28;20487;-79
2021/06/14 07:54:58;;;;;;;4.83;3.13;;;20.70;31.30;;;;;;5206355;22;20511;-78
2021/06/14 07:57:25;;;;;;;8.20;3.80;;;20.80;31.30;;;;;;5070599;28;20459;-80
2021/06/14 07:59:52;;;;;;;6.80;3.70;;;21.00;31.10;;;;;;5066885;28;20478;-79
2021/06/14 08:02:19;;;;;;;4.30;3.20;;;21.10;30.00;;;;;;5089457;22;20507;-79
2021/06/14 08:04:48;;;;;;;3.93;3.17;;;21.20;30.00;;;;;;5073073;28;20454;-82
2021/06/14 08:07:15;;;;;;;9.63;3.37;;;21.20;30.30;;;;;;5077967;28;20471;-84
2021/06/14 08:09:44;;;;;;;4.23;3.20;;;21.40;30.40;;;;;;5077958;28;20426;-83
2021/06/14 08:12:11;;;;;;;4.60;3.50;;;21.30;30.40;;;;;;5077822;28;20424;-83
2021/06/14 08:14:38;;;;;;;4.37;3.27;;;21.30;30.60;;;;;;5070944;28;20466;-79
2021/06/14 08:17:05;;;;;;;3.80;3.30;;;21.40;30.00;;;;;;5066191;28;20463;-80
2021/06/14 08:19:38;;;;;;;4.13;2.97;;;21.40;29.90;;;;;;5066205;28;20833;-80
2021/06/14 08:22:24;;;;;;;4.40;3.10;;;21.50;30.00;;;;;;5071442;28;20448;-80
2021/06/14 08:25:04;;;;;;;5.90;2.77;;;21.60;30.00;;;;;;5075309;28;20434;-83
2021/06/14 08:27:32;;;;;;;3.70;3.00;;;21.60;30.00;;;;;;5076630;28;20423;-82
2021/06/14 08:29:59;;;;;;;4.43;2.87;;;21.80;30.10;;;;;;5076453;28;20464;-82
2021/06/14 08:32:26;;;;;;;5.27;3.27;;;22.00;30.30;;;;;;5077456;28;20469;-85
2021/06/14 08:34:53;;;;;;;5.50;3.03;;;22.00;30.30;;;;;;5076940;28;20483;-83
2021/06/14 08:37:21;;;;;;;6.40;3.40;;;22.20;30.50;;;;;;5077372;28;20456;-83
2021/06/14 08:39:48;;;;;;;4.80;3.47;;;22.10;30.40;;;;;;5077770;28;20444;-81
2021/06/14 08:42:15;;;;;;;6.57;3.23;;;22.30;30.20;;;;;;5071267;28;20450;-81
2021/06/14 08:44:43;;;;;;;6.77;3.03;;;22.20;30.50;;;;;;5064348;28;20423;-79
2021/06/14 08:47:11;;;;;;;5.00;3.63;;;22.20;30.00;;;;;;5070957;28;20942;-82
2021/06/14 08:49:39;;;;;;;5.90;3.37;;;22.40;30.00;;;;;;5071310;28;20433;-83
2021/06/14 08:52:07;;;;;;;3.67;3.07;;;22.40;29.40;;;;;;5067937;28;20431;-81
2021/06/14 08:54:40;;;;;;;8.17;3.37;;;22.50;29.20;;;;;;5067892;28;20514;-80
2021/06/14 08:57:08;;;;;;;5.07;3.60;;;22.70;29.00;;;;;;5064174;28;20445;-80
2021/06/14 08:59:35;;;;;;;3.90;3.40;;;22.80;28.80;;;;;;5067917;28;20423;-79
2021/06/14 09:02:03;;;;;;;4.47;2.80;;;23.00;28.50;;;;;;5049646;28;20413;-84
2021/06/14 09:04:30;;;;;;;4.20;3.20;;;23.00;27.90;;;;;;5046014;28;20476;-82
2021/06/14 09:06:57;;;;;;;4.50;3.70;;;23.00;28.70;;;;;;5040811;28;20473;-83
2021/06/14 09:09:24;;;;;;;7.60;3.30;;;22.90;28.80;;;;;;5052812;28;20503;-83
2021/06/14 09:11:54;;;;;;;5.20;3.20;;;23.20;28.20;;;;;;5039768;28;20423;-82
2021/06/14 09:14:23;;;;;;;7.03;3.30;;;23.20;27.70;;;;;;5035652;28;20513;-82
2021/06/14 09:16:51;;;;;;;5.97;2.93;;;23.30;27.40;;;;;;5037371;28;20544;-83
2021/06/14 09:19:30;;;;;;;6.80;3.20;;;23.70;27.40;;;;;;5045767;28;20450;-83
2021/06/14 09:21:57;;;;;;;6.20;3.30;;;23.40;27.30;;;;;;5071530;28;20428;-83
2021/06/14 09:24:26;;;;;;;5.63;2.87;;;23.50;26.70;;;;;;5057302;28;20464;-83
2021/06/14 09:26:54;;;;;;;4.00;2.77;;;23.40;26.80;;;;;;5057424;28;20433;-82
2021/06/14 09:29:26;;;;;;;6.73;2.87;;;23.50;26.50;;;;;;5038518;28;20478;-83
2021/06/14 09:31:56;;;;;;;3.67;3.10;;;23.50;26.50;;;;;;5043086;28;20481;-84
2021/06/14 09:34:35;;;;;;;6.10;2.90;;;23.60;26.60;;;;;;5044107;28;20520;-84
2021/06/14 09:37:05;;;;;;;3.50;3.00;;;23.80;25.30;;;;;;5044702;28;20536;-82
2021/06/14 09:39:40;;;;;;;5.90;3.03;;;24.00;25.20;;;;;;5046882;28;20462;-86
2021/06/14 09:42:17;;;;;;;3.93;3.20;;;24.00;25.50;;;;;;5052018;28;20509;-85
2021/06/14 09:44:45;;;;;;;5.00;3.37;;;24.10;25.60;;;;;;5058761;28;20885;-83
2021/06/14 09:47:13;;;;;;;4.97;3.40;;;24.30;24.30;;;;;;5068404;28;20494;-83
2021/06/14 09:49:41;;;;;;;7.03;3.23;;;24.10;25.00;;;;;;5075502;28;20455;-85
2021/06/14 09:52:21;;;;;;;4.30;3.10;;;24.60;25.20;;;;;;5073905;28;20435;-86
2021/06/14 09:54:48;;;;;;;5.00;3.33;;;24.50;23.90;;;;;;5066068;28;21013;-84
2021/06/14 09:57:27;;;;;;;6.60;2.97;;;24.30;23.80;;;;;;5065606;28;20454;-84
2021/06/14 09:59:54;;;;;;;5.23;2.83;;;24.50;24.50;;;;;;5065917;28;20429;-84
2021/06/14 10:02:21;;;;;;;3.33;2.80;;;24.80;24.10;;;;;;5070146;28;20848;-84
2021/06/14 10:04:53;;;;;;;4.70;2.63;;;24.60;24.00;;;;;;5057828;28;20453;-83
2021/06/14 10:07:21;;;;;;;3.53;2.73;;;24.80;24.10;;;;;;5048776;28;20489;-85
2021/06/14 10:09:53;;;;;;;5.20;2.87;;;24.60;24.00;;;;;;5047307;28;20924;-85
2021/06/14 10:12:25;;;;;;;3.17;2.53;;;24.80;23.40;;;;;;5046276;28;20518;-84
2021/06/14 10:14:56;;;;;;;3.43;3.13;;;25.00;22.80;;;;;;5051769;28;20531;-84
2021/06/14 10:17:36;;;;;;;4.63;2.87;;;25.10;22.60;;;;;;5051655;28;20462;-83
2021/06/14 10:20:11;;;;;;;9.03;3.10;;;25.40;22.20;;;;;;5050111;28;20434;-85
2021/06/14 10:22:39;;;;;;;3.27;2.50;;;24.80;22.30;;;;;;5053538;28;20487;-83
2021/06/14 10:25:08;;;;;;;4.40;2.93;;;24.60;22.50;;;;;;5075568;28;20430;-83
2021/06/14 10:27:37;;;;;;;3.97;3.00;;;24.90;22.40;;;;;;5061606;28;20452;-83
2021/06/14 10:30:06;;;;;;;7.50;3.00;;;25.00;22.60;;;;;;5058136;28;20452;-83
2021/06/14 10:32:35;;;;;;;4.80;3.40;;;24.90;23.50;;;;;;5057155;28;20455;-85
2021/06/14 10:35:03;;;;;;;4.17;2.60;;;25.10;22.50;;;;;;5064537;28;20676;-83
2021/06/14 10:37:32;;;;;;;3.47;3.17;;;25.10;21.80;;;;;;5079025;28;20446;-82
2021/06/14 10:39:59;;;;;;;2.67;2.47;;;25.10;21.80;;;;;;5072111;28;20412;-83
2021/06/14 10:42:27;;;;;;;4.50;2.57;;;25.40;21.50;;;;;;5058777;28;20460;-86
2021/06/14 10:44:56;;;;;;;4.27;2.73;;;25.60;21.80;;;;;;5056366;28;20625;-84
2021/06/14 10:47:22;;;;;;;2.50;2.30;;;25.70;22.10;;;;;;5058339;28;20449;-84
2021/06/14 10:49:55;;;;;;;7.10;2.70;;;26.00;21.20;;;;;;5056408;28;20508;-83
2021/06/14 10:52:22;;;;;;;3.63;2.73;;;26.10;19.70;;;;;;5052141;28;20473;-85
2021/06/14 10:54:49;;;;;;;3.50;2.50;;;25.80;20.00;;;;;;5051599;28;20876;-84
2021/06/14 10:57:16;;;;;;;3.23;2.57;;;25.80;20.20;;;;;;5063325;28;20825;-83
2021/06/14 10:59:45;;;;;;;8.27;3.47;;;25.80;20.10;;;;;;5058434;28;20424;-83
2021/06/14 11:02:15;;;;;;;3.10;2.57;;;25.80;19.70;;;;;;5045890;28;20451;-84
2021/06/14 11:04:42;;;;;;;7.27;2.50;;;25.90;19.70;;;;;;5050498;28;20487;-83
2021/06/14 11:07:09;;;;;;;5.23;2.57;;;26.10;18.90;;;;;;5064671;28;20456;-85
2021/06/14 11:09:43;;;;;;;2.93;2.73;;;25.90;18.40;;;;;;5065297;28;20439;-86
2021/06/14 11:12:12;;;;;;;6.07;3.10;;;26.00;19.30;;;;;;5081070;23;20470;-83
2021/06/14 11:14:42;;;;;;;9.50;3.27;;;26.10;18.40;;;;;;5058288;28;20559;-84
2021/06/14 11:17:18;;;;;;;4.73;2.40;;;26.20;18.60;;;;;;5064867;28;20518;-84
2021/06/14 11:19:47;;;;;;;4.07;2.77;;;26.40;18.10;;;;;;5063644;28;20958;-85
2021/06/14 11:22:14;;;;;;;7.00;2.57;;;26.40;17.50;;;;;;5078541;28;20470;-83
2021/06/14 11:24:43;;;;;;;4.13;2.90;;;26.40;17.90;;;;;;5075448;28;20527;-85
2021/06/14 11:27:11;;;;;;;3.67;2.30;;;26.30;18.30;;;;;;5079772;28;20460;-85
2021/06/14 11:29:47;;;;;;;7.63;3.07;;;26.20;18.60;;;;;;5075755;28;20469;-82
2021/06/14 11:32:19;;;;;;;3.43;2.30;;;26.40;18.30;;;;;;5070446;28;20505;-82
2021/06/14 11:34:51;;;;;;;2.60;2.40;;;26.20;19.00;;;;;;5082040;28;20785;-82
2021/06/14 11:37:18;;;;;;;3.27;2.50;;;26.20;19.40;;;;;;5079742;28;20467;-81
2021/06/14 11:39:45;;;;;;;6.13;2.67;;;26.50;18.80;;;;;;5080556;28;20555;-81
2021/06/14 11:42:15;;;;;;;8.23;3.10;;;26.70;18.00;;;;;;5080195;28;20483;-81
2021/06/14 11:44:54;;;;;;;6.30;3.03;;;26.80;18.00;;;;;;5080061;28;20427;-82
2021/06/14 11:47:24;;;;;;;4.10;2.80;;;26.80;18.50;;;;;;5079623;28;20492;-82
2021/06/14 11:49:53;;;;;;;3.77;2.70;;;26.50;19.50;;;;;;5067346;28;20544;-83
2021/06/14 11:52:23;;;;;;;4.37;2.50;;;26.70;18.40;;;;;;5076427;28;20488;-83
2021/06/14 11:54:57;;;;;;;3.50;2.50;;;26.90;17.70;;;;;;5084483;28;20480;-84
2021/06/14 11:57:32;;;;;;;3.20;2.30;;;26.50;17.90;;;;;;5086070;28;20430;-83
2021/06/14 12:00:00;;;;;;;3.93;2.00;;;26.50;17.80;;;;;;5071142;28;20408;-84
2021/06/14 12:02:30;;;;;;;4.10;2.13;;;26.80;17.90;;;;;;5064601;28;20541;-83
2021/06/14 12:05:01;;;;;;;3.73;2.57;;;26.80;17.40;;;;;;5063702;28;20411;-83
2021/06/14 12:07:33;;;;;;;3.03;2.40;;;26.80;16.70;;;;;;5062356;28;20526;-85
2021/06/14 12:10:03;;;;;;;2.67;2.47;;;27.00;16.90;;;;;;5082369;28;20944;-85
2021/06/14 12:12:30;;;;;;;3.80;2.30;;;26.90;16.80;;;;;;5081348;28;20453;-83
2021/06/14 12:14:57;;;;;;;3.30;2.27;;;26.80;16.70;;;;;;5079283;28;20511;-85
2021/06/14 12:17:27;;;;;;;2.60;2.40;;;26.50;16.60;;;;;;5094535;28;20470;-86
2021/06/14 12:19:55;;;;;;;2.53;2.30;;;26.50;16.60;;;;;;5097230;28;20427;-86
2021/06/14 12:22:25;;;;;;;2.30;2.03;;;26.90;16.80;;;;;;5097798;28;20457;-86
2021/06/14 12:24:52;;;;;;;3.03;2.50;;;27.20;17.00;;;;;;5093106;28;20510;-87
2021/06/14 12:27:22;;;;;;;4.60;2.53;;;27.10;16.70;;;;;;5085736;28;20981;-87
2021/06/14 12:29:57;;;;;;;2.43;2.23;;;27.10;16.00;;;;;;5083308;28;20459;-85
2021/06/14 12:32:25;;;;;;;6.30;2.40;;;27.20;16.80;;;;;;5082979;28;20449;-84
2021/06/14 12:34:58;;;;;;;6.80;2.37;;;27.10;16.90;;;;;;5081080;28;20448;-84
2021/06/14 12:37:27;;;;;;;3.50;2.10;;;27.10;16.90;;;;;;5080256;28;21019;-78
2021/06/14 12:39:58;;;;;;;5.10;2.20;;;27.20;17.00;;;;;;5079894;28;20466;-80
2021/06/14 12:42:26;;;;;;;2.80;2.60;;;27.30;17.00;;;;;;5080160;28;20805;-79
2021/06/14 12:44:55;;;;;;;3.80;2.37;;;27.50;16.30;;;;;;5080357;28;20423;-79
2021/06/14 12:47:22;;;;;;;4.47;2.67;;;27.40;17.10;;;;;;5080374;28;20605;-82
2021/06/14 12:49:50;;;;;;;3.00;2.53;;;27.60;16.80;;;;;;5083342;28;20450;-82
2021/06/14 12:52:19;;;;;;;4.20;2.40;;;27.70;16.60;;;;;;5082910;28;20527;-81
2021/06/14 12:54:48;;;;;;;3.23;2.20;;;27.70;16.20;;;;;;5092623;28;20548;-81